ADDS METAR Data INFO
IDs: Format: Raw Decoded Include TAF

Data at: 0944 UTC 25 Jun 2018

KCQF 250935Z AUTO 00000KT 10SM SCT019 24/24 A3003 RMK AO2
KCQF 250915Z AUTO 00000KT 10SM SCT020 SCT027 SCT034 25/25 A3003 RMK AO2
KCQF 250855Z AUTO 00000KT 10SM SCT020 BKN027 BKN034 25/25 A3003 RMK AO2
KCQF 250835Z AUTO 00000KT 10SM BKN018 BKN025 25/25 A3003 RMK AO2
KCQF 250815Z AUTO 00000KT 10SM SCT018 25/25 A3004 RMK AO2
KCQF 250755Z AUTO 00000KT 10SM SCT018 SCT029 25/25 A3003 RMK AO2
KCQF 250735Z AUTO 00000KT 10SM SCT018 SCT027 25/25 A3003 RMK AO2
KCQF 250715Z AUTO 00000KT 10SM SCT020 25/25 A3004 RMK AO2
KCQF 250655Z AUTO 00000KT 10SM SCT020 SCT028 SCT034 25/25 A3004 RMK AO2
KCQF 250635Z AUTO 00000KT 10SM SCT020 BKN026 BKN034 24/24 A3004 RMK AO2
KCQF 250615Z AUTO 00000KT 10SM SCT020 SCT027 24/24 A3004 RMK AO2
KCQF 250555Z AUTO 00000KT 10SM SCT020 SCT025 24/24 A3004 RMK AO2
KCQF 250535Z AUTO 00000KT 10SM SCT018 SCT025 24/24 A3004 RMK AO2
KCQF 250515Z AUTO 00000KT 10SM SCT018 25/25 A3004 RMK AO2
KCQF 250455Z AUTO 00000KT 10SM SCT018 24/24 A3005 RMK AO2
KCQF 250435Z AUTO 00000KT 10SM SCT018 24/24 A3005 RMK AO2
KCQF 250415Z AUTO 00000KT 10SM SCT018 25/25 A3004 RMK AO2
KCQF 250355Z AUTO 00000KT 10SM SCT018 25/25 A3005 RMK AO2
KCQF 250335Z AUTO 00000KT 10SM CLR 25/25 A3004 RMK AO2
KCQF 250315Z AUTO 00000KT 10SM CLR 25/25 A3004 RMK AO2
KCQF 250255Z AUTO 00000KT 10SM CLR 27/27 A3004 RMK AO2
KCQF 250235Z AUTO 00000KT 10SM CLR 26/26 A3004 RMK AO2
KCQF 250215Z AUTO 00000KT 10SM CLR 26/26 A3004 RMK AO2
KCQF 250155Z AUTO 00000KT 10SM CLR 27/26 A3003 RMK AO2
KCQF 250135Z AUTO 00000KT 10SM CLR 27/26 A3002 RMK AO2
KCQF 250115Z AUTO 00000KT 10SM CLR 27/26 A3002 RMK AO2
KCQF 250055Z AUTO 00000KT 10SM CLR 28/26 A3001 RMK AO2
KCQF 250035Z AUTO 00000KT 10SM CLR 28/26 A3000 RMK AO2
KCQF 250015Z AUTO 24005KT 10SM CLR 28/25 A2999 RMK AO2
KCQF 242355Z AUTO 21003KT 10SM CLR 29/26 A2998 RMK AO2
KCQF 242335Z AUTO 21003KT 10SM CLR 29/25 A2998 RMK AO2
KCQF 242315Z AUTO 00000KT 10SM CLR 30/26 A2998 RMK AO2
KCQF 242255Z AUTO 23003KT 10SM CLR 30/24 A2999 RMK AO2
KCQF 242235Z AUTO 23005KT 10SM CLR 30/23 A2999 RMK AO2
KCQF 242215Z AUTO 19005KT 10SM CLR 30/24 A3000 RMK AO2
KCQF 242155Z AUTO 22003KT 10SM CLR 30/23 A3000 RMK AO2
KCQF 242135Z AUTO 22005KT 10SM CLR 30/25 A3001 RMK AO2
KCQF 242115Z AUTO 23006KT 10SM CLR 30/25 A3001 RMK AO2
KCQF 242055Z AUTO 20006KT 10SM CLR 30/24 A3002 RMK AO2
KCQF 242035Z AUTO 25007KT 10SM CLR 30/25 A3002 RMK AO2
KCQF 242015Z AUTO 22007KT 160V240 10SM CLR 30/25 A3002 RMK AO2
KCQF 241955Z AUTO 22007KT 200V260 10SM CLR 30/25 A3002 RMK AO2
KCQF 241935Z AUTO 20003KT 10SM CLR 30/25 A3002 RMK AO2
KCQF 241915Z AUTO 19005KT 10SM CLR 30/25 A3002 RMK AO2
KCQF 241855Z AUTO 18004KT 10SM CLR 30/25 A3003 RMK AO2
KCQF 241835Z AUTO 22005KT 10SM CLR 30/25 A3004 RMK AO2
KCQF 241815Z AUTO 23004KT 10SM CLR 30/26 A3004 RMK AO2
KCQF 241755Z AUTO 22006KT 10SM CLR 30/26 A3005 RMK AO2
KCQF 241735Z AUTO 23005KT 10SM SCT022 30/26 A3006 RMK AO2
KCQF 241715Z AUTO 22005KT 10SM CLR 30/26 A3006 RMK AO2
KCQF 241655Z AUTO 24007KT 180V260 10SM CLR 29/26 A3006 RMK AO2
KCQF 241635Z AUTO 24006KT 10SM SCT021 29/26 A3006 RMK AO2
KCQF 241615Z AUTO 23006KT 10SM SCT021 29/26 A3005 RMK AO2
KCQF 241555Z AUTO 23007KT 10SM SCT019 SCT024 29/27 A3005 RMK AO2
KCQF 241535Z AUTO 22005KT 10SM BKN018 29/27 A3005 RMK AO2
KCQF 241515Z AUTO 23004KT 10SM SCT018 29/27 A3005 RMK AO2
KCQF 241455Z AUTO 24008KT 10SM SCT018 29/27 A3004 RMK AO2
KCQF 241435Z AUTO 22006KT 10SM SCT016 29/27 A3004 RMK AO2
KCQF 241415Z AUTO 25006KT 10SM SCT016 29/27 A3004 RMK AO2
KCQF 241355Z AUTO 24005KT 10SM SCT016 SCT022 28/27 A3004 RMK AO2
KCQF 241335Z AUTO 22006KT 10SM SCT016 SCT021 28/27 A3004 RMK AO2
KCQF 241315Z AUTO 25007KT 10SM BKN016 BKN031 28/27 A3003 RMK AO2
KCQF 241255Z AUTO 25006KT 10SM BKN017 28/27 A3003 RMK AO2
KCQF 241235Z AUTO 23007KT 10SM BKN017 28/27 A3002 RMK AO2
KCQF 241215Z AUTO 25004KT 10SM SCT019 SCT026 SCT036 27/27 A3001 RMK AO2
KCQF 241155Z AUTO 26003KT 10SM SCT017 SCT022 SCT026 27/27 A3001 RMK AO2
KCQF 241135Z AUTO 25007KT 10SM SCT017 SCT025 SCT034 27/27 A3001 RMK AO2
KCQF 241115Z AUTO 00000KT 10SM BKN019 BKN025 OVC046 27/27 A3001 RMK AO2
KCQF 241055Z AUTO 00000KT 10SM BKN019 BKN029 BKN041 27/27 A3000 RMK AO2
KCQF 241035Z AUTO 24003KT 10SM BKN021 BKN029 OVC060 27/27 A3000 RMK AO2
KCQF 241015Z AUTO 26003KT 10SM BKN019 BKN027 27/26 A2999 RMK AO2
KCQF 240955Z AUTO 00000KT 10SM BKN019 BKN027 27/27 A2998 RMK AO2
KCQF 240935Z AUTO 22003KT 10SM BKN019 BKN028 BKN034 27/27 A2998 RMK AO2
KCQF 240915Z AUTO 22003KT 10SM BKN019 BKN026 27/26 A2998 RMK AO2
KCQF 240855Z AUTO 00000KT 10SM BKN019 BKN025 27/27 A2997 RMK AO2
KCQF 240835Z AUTO 00000KT 10SM SCT019 SCT025 SCT046 27/26 A2997 RMK AO2
KCQF 240815Z AUTO 00000KT 10SM SCT021 BKN027 BKN046 27/26 A2997 RMK AO2
KCQF 240755Z AUTO 23003KT 10SM SCT019 SCT027 BKN042 27/27 A2996 RMK AO2
KCQF 240735Z AUTO 20004KT 10SM BKN019 BKN026 BKN040 27/26 A2996 RMK AO2
KCQF 240715Z AUTO 19004KT 10SM BKN019 BKN028 BKN038 27/27 A2996 RMK AO2
KCQF 240655Z AUTO 00000KT 10SM SCT019 BKN027 BKN032 27/26 A2996 RMK AO2
KCQF 240635Z AUTO 00000KT 10SM BKN019 BKN026 BKN032 27/27 A2997 RMK AO2
KCQF 240615Z AUTO 18004KT 10SM BKN019 BKN025 BKN032 27/27 A2997 RMK AO2
KCQF 240555Z AUTO 00000KT 10SM SCT019 BKN028 BKN034 27/27 A2997 RMK AO2
KCQF 240535Z AUTO 00000KT 10SM BKN021 BKN026 BKN037 27/27 A2998 RMK AO2
KCQF 240515Z AUTO 00000KT 10SM SCT018 BKN023 OVC055 27/27 A2998 RMK AO2
KCQF 240455Z AUTO 20003KT 10SM BKN020 OVC028 27/27 A2998 RMK AO2
KCQF 240435Z AUTO 20004KT 10SM BKN020 OVC025 27/27 A2998 RMK AO2
KCQF 240415Z AUTO 00000KT 10SM BKN018 OVC024 27/27 A2998 RMK AO2
KCQF 240355Z AUTO 00000KT 10SM BKN018 OVC026 27/27 A2998 RMK AO2
KCQF 240335Z AUTO 00000KT 10SM BKN018 BKN025 27/27 A2998 RMK AO2
KCQF 240315Z AUTO 00000KT 10SM BKN018 BKN025 27/27 A2997 RMK AO2
KCQF 240255Z AUTO 00000KT 10SM BKN018 27/27 A2996 RMK AO2
KCQF 240235Z AUTO 00000KT 10SM SCT018 SCT023 27/27 A2996 RMK AO2
KCQF 240215Z AUTO 00000KT 10SM BKN018 27/27 A2995 RMK AO2
KCQF 240155Z AUTO 19003KT 10SM BKN018 27/27 A2994 RMK AO2
KCQF 240135Z AUTO 18006KT 10SM BKN018 27/27 A2993 RMK AO2
KCQF 240115Z AUTO 19003KT 10SM SCT018 SCT023 27/27 A2993 RMK AO2
KCQF 240055Z AUTO 00000KT 10SM SCT022 28/26 A2993 RMK AO2
KCQF 240035Z AUTO 19004KT 10SM SCT022 28/26 A2993 RMK AO2
KCQF 240015Z AUTO 21004KT 10SM CLR 28/26 A2993 RMK AO2
KCQF 232355Z AUTO 19003KT 10SM CLR 28/26 A2992 RMK AO2
KCQF 232335Z AUTO 21004KT 10SM CLR 29/26 A2992 RMK AO2
KCQF 232315Z AUTO 19006KT 10SM CLR 29/26 A2992 RMK AO2
KCQF 232255Z AUTO 20005KT 10SM CLR 29/26 A2991 RMK AO2
KCQF 232235Z AUTO 21004KT 10SM CLR 30/26 A2992 RMK AO2
KCQF 232215Z AUTO 20004KT 10SM CLR 30/26 A2993 RMK AO2
KCQF 232155Z AUTO 21006KT 10SM CLR 30/26 A2993 RMK AO2